sensor_id;sensor_type;location;lat;lon;timestamp;P1;durP1;ratioP1;P2;durP2;ratioP2
11113;SDS011;5610;52.154;9.198;2022-07-29T00:00:56;5.03;;;1.83;;
11113;SDS011;5610;52.154;9.198;2022-07-29T00:03:42;5.10;;;1.90;;
11113;SDS011;5610;52.154;9.198;2022-07-29T00:06:28;4.10;;;1.97;;
11113;SDS011;5610;52.154;9.198;2022-07-29T00:09:13;4.90;;;1.70;;
11113;SDS011;5610;52.154;9.198;2022-07-29T00:11:59;5.30;;;1.50;;
11113;SDS011;5610;52.154;9.198;2022-07-29T00:14:45;3.23;;;1.70;;
11113;SDS011;5610;52.154;9.198;2022-07-29T00:17:31;8.83;;;1.80;;
11113;SDS011;5610;52.154;9.198;2022-07-29T00:20:19;2.93;;;1.90;;
11113;SDS011;5610;52.154;9.198;2022-07-29T00:23:04;4.70;;;2.07;;
11113;SDS011;5610;52.154;9.198;2022-07-29T00:25:50;1.87;;;1.40;;
11113;SDS011;5610;52.154;9.198;2022-07-29T00:28:35;2.20;;;1.60;;
11113;SDS011;5610;52.154;9.198;2022-07-29T00:31:21;6.33;;;2.27;;
11113;SDS011;5610;52.154;9.198;2022-07-29T00:34:06;4.37;;;1.70;;
11113;SDS011;5610;52.154;9.198;2022-07-29T00:37:13;4.57;;;1.67;;
11113;SDS011;5610;52.154;9.198;2022-07-29T00:39:57;8.47;;;1.80;;
11113;SDS011;5610;52.154;9.198;2022-07-29T00:42:43;2.60;;;1.43;;
11113;SDS011;5610;52.154;9.198;2022-07-29T00:45:29;2.80;;;1.70;;
11113;SDS011;5610;52.154;9.198;2022-07-29T00:48:14;3.17;;;1.50;;
11113;SDS011;5610;52.154;9.198;2022-07-29T00:51:01;8.10;;;1.63;;
11113;SDS011;5610;52.154;9.198;2022-07-29T00:53:49;3.67;;;1.87;;
11113;SDS011;5610;52.154;9.198;2022-07-29T00:56:35;9.60;;;2.10;;
11113;SDS011;5610;52.154;9.198;2022-07-29T00:59:20;5.23;;;1.77;;
11113;SDS011;5610;52.154;9.198;2022-07-29T01:02:05;3.47;;;1.60;;
11113;SDS011;5610;52.154;9.198;2022-07-29T01:04:51;4.20;;;1.60;;
11113;SDS011;5610;52.154;9.198;2022-07-29T01:07:36;6.43;;;1.70;;
11113;SDS011;5610;52.154;9.198;2022-07-29T01:10:25;4.03;;;1.47;;
11113;SDS011;5610;52.154;9.198;2022-07-29T01:13:11;2.40;;;1.50;;
11113;SDS011;5610;52.154;9.198;2022-07-29T01:15:59;3.23;;;1.63;;
11113;SDS011;5610;52.154;9.198;2022-07-29T01:18:49;3.80;;;1.50;;
11113;SDS011;5610;52.154;9.198;2022-07-29T01:21:45;6.17;;;1.73;;
11113;SDS011;5610;52.154;9.198;2022-07-29T01:24:39;5.17;;;2.03;;
11113;SDS011;5610;52.154;9.198;2022-07-29T01:27:47;4.60;;;1.90;;
11113;SDS011;5610;52.154;9.198;2022-07-29T01:30:44;6.67;;;1.70;;
11113;SDS011;5610;52.154;9.198;2022-07-29T01:33:33;2.43;;;1.50;;
11113;SDS011;5610;52.154;9.198;2022-07-29T01:36:35;3.57;;;1.90;;
11113;SDS011;5610;52.154;9.198;2022-07-29T01:39:26;3.77;;;1.90;;
11113;SDS011;5610;52.154;9.198;2022-07-29T01:42:15;3.73;;;2.00;;
11113;SDS011;5610;52.154;9.198;2022-07-29T01:45:06;6.57;;;2.00;;
11113;SDS011;5610;52.154;9.198;2022-07-29T01:47:58;3.37;;;1.70;;
11113;SDS011;5610;52.154;9.198;2022-07-29T01:50:48;2.20;;;1.43;;
11113;SDS011;5610;52.154;9.198;2022-07-29T01:53:37;4.47;;;1.70;;
11113;SDS011;5610;52.154;9.198;2022-07-29T01:56:27;6.80;;;1.70;;
11113;SDS011;5610;52.154;9.198;2022-07-29T01:59:17;5.43;;;1.80;;
11113;SDS011;5610;52.154;9.198;2022-07-29T02:02:03;6.70;;;2.10;;
11113;SDS011;5610;52.154;9.198;2022-07-29T02:04:53;6.00;;;1.73;;
11113;SDS011;5610;52.154;9.198;2022-07-29T02:07:41;3.27;;;1.70;;
11113;SDS011;5610;52.154;9.198;2022-07-29T02:10:29;4.67;;;1.70;;
11113;SDS011;5610;52.154;9.198;2022-07-29T02:13:17;4.47;;;1.63;;
11113;SDS011;5610;52.154;9.198;2022-07-29T02:16:06;3.63;;;2.23;;
11113;SDS011;5610;52.154;9.198;2022-07-29T02:18:54;6.80;;;1.90;;
11113;SDS011;5610;52.154;9.198;2022-07-29T02:21:44;4.70;;;1.90;;
11113;SDS011;5610;52.154;9.198;2022-07-29T02:24:30;7.77;;;1.93;;
11113;SDS011;5610;52.154;9.198;2022-07-29T02:27:15;4.50;;;1.57;;
11113;SDS011;5610;52.154;9.198;2022-07-29T02:30:07;3.37;;;1.60;;
11113;SDS011;5610;52.154;9.198;2022-07-29T02:32:54;5.43;;;1.83;;
11113;SDS011;5610;52.154;9.198;2022-07-29T02:35:41;2.97;;;1.50;;
11113;SDS011;5610;52.154;9.198;2022-07-29T02:38:30;3.00;;;1.67;;
11113;SDS011;5610;52.154;9.198;2022-07-29T02:41:35;2.50;;;1.90;;
11113;SDS011;5610;52.154;9.198;2022-07-29T02:44:25;6.50;;;1.93;;
11113;SDS011;5610;52.154;9.198;2022-07-29T02:47:13;3.67;;;1.57;;
11113;SDS011;5610;52.154;9.198;2022-07-29T02:50:04;4.57;;;2.03;;
11113;SDS011;5610;52.154;9.198;2022-07-29T02:52:54;4.10;;;1.67;;
11113;SDS011;5610;52.154;9.198;2022-07-29T02:55:45;2.90;;;1.80;;
11113;SDS011;5610;52.154;9.198;2022-07-29T02:58:34;3.03;;;1.50;;
11113;SDS011;5610;52.154;9.198;2022-07-29T03:01:24;2.50;;;1.40;;
11113;SDS011;5610;52.154;9.198;2022-07-29T03:04:14;5.20;;;1.83;;
11113;SDS011;5610;52.154;9.198;2022-07-29T03:07:03;2.60;;;1.57;;
11113;SDS011;5610;52.154;9.198;2022-07-29T03:09:49;2.80;;;1.40;;
11113;SDS011;5610;52.154;9.198;2022-07-29T03:12:37;4.93;;;1.77;;
11113;SDS011;5610;52.154;9.198;2022-07-29T03:15:23;5.63;;;2.00;;
11113;SDS011;5610;52.154;9.198;2022-07-29T03:18:10;3.83;;;1.77;;
11113;SDS011;5610;52.154;9.198;2022-07-29T03:20:55;4.20;;;1.53;;
11113;SDS011;5610;52.154;9.198;2022-07-29T03:23:43;3.70;;;1.60;;
11113;SDS011;5610;52.154;9.198;2022-07-29T03:26:29;5.10;;;1.97;;
11113;SDS011;5610;52.154;9.198;2022-07-29T03:29:16;2.90;;;1.83;;
11113;SDS011;5610;52.154;9.198;2022-07-29T03:32:02;3.13;;;1.67;;
11113;SDS011;5610;52.154;9.198;2022-07-29T03:34:48;5.20;;;1.70;;
11113;SDS011;5610;52.154;9.198;2022-07-29T03:37:34;6.17;;;2.23;;
11113;SDS011;5610;52.154;9.198;2022-07-29T03:40:21;4.30;;;1.90;;
11113;SDS011;5610;52.154;9.198;2022-07-29T03:43:10;3.43;;;1.43;;
11113;SDS011;5610;52.154;9.198;2022-07-29T03:45:57;4.30;;;1.67;;
11113;SDS011;5610;52.154;9.198;2022-07-29T03:48:46;3.50;;;1.50;;
11113;SDS011;5610;52.154;9.198;2022-07-29T03:51:35;3.67;;;1.93;;
11113;SDS011;5610;52.154;9.198;2022-07-29T03:54:20;3.67;;;2.10;;
11113;SDS011;5610;52.154;9.198;2022-07-29T03:57:05;4.90;;;1.67;;
11113;SDS011;5610;52.154;9.198;2022-07-29T03:59:55;4.50;;;1.53;;
11113;SDS011;5610;52.154;9.198;2022-07-29T04:02:42;3.20;;;1.63;;
11113;SDS011;5610;52.154;9.198;2022-07-29T04:05:32;5.13;;;1.70;;
11113;SDS011;5610;52.154;9.198;2022-07-29T04:08:17;2.37;;;1.60;;
11113;SDS011;5610;52.154;9.198;2022-07-29T04:11:03;3.50;;;1.80;;
11113;SDS011;5610;52.154;9.198;2022-07-29T04:13:49;4.33;;;2.10;;
11113;SDS011;5610;52.154;9.198;2022-07-29T04:16:34;8.80;;;1.60;;
11113;SDS011;5610;52.154;9.198;2022-07-29T04:19:21;5.07;;;1.70;;
11113;SDS011;5610;52.154;9.198;2022-07-29T04:22:06;5.80;;;1.90;;
11113;SDS011;5610;52.154;9.198;2022-07-29T04:24:51;4.30;;;2.23;;
11113;SDS011;5610;52.154;9.198;2022-07-29T04:27:37;3.53;;;1.70;;
11113;SDS011;5610;52.154;9.198;2022-07-29T04:30:42;3.83;;;1.70;;
11113;SDS011;5610;52.154;9.198;2022-07-29T04:33:27;5.27;;;1.97;;
11113;SDS011;5610;52.154;9.198;2022-07-29T04:36:14;4.23;;;1.93;;
11113;SDS011;5610;52.154;9.198;2022-07-29T04:38:59;7.47;;;1.60;;
11113;SDS011;5610;52.154;9.198;2022-07-29T04:41:45;2.83;;;1.73;;
11113;SDS011;5610;52.154;9.198;2022-07-29T04:44:31;4.83;;;1.60;;
11113;SDS011;5610;52.154;9.198;2022-07-29T04:47:16;3.90;;;1.50;;
11113;SDS011;5610;52.154;9.198;2022-07-29T04:50:02;3.10;;;1.73;;
11113;SDS011;5610;52.154;9.198;2022-07-29T04:52:48;5.23;;;1.80;;
11113;SDS011;5610;52.154;9.198;2022-07-29T04:55:34;3.53;;;1.70;;
11113;SDS011;5610;52.154;9.198;2022-07-29T04:58:20;3.20;;;1.50;;
11113;SDS011;5610;52.154;9.198;2022-07-29T05:01:06;6.10;;;1.90;;
11113;SDS011;5610;52.154;9.198;2022-07-29T05:03:52;3.23;;;1.80;;
11113;SDS011;5610;52.154;9.198;2022-07-29T05:06:37;4.23;;;1.60;;
11113;SDS011;5610;52.154;9.198;2022-07-29T05:09:24;2.83;;;1.67;;
11113;SDS011;5610;52.154;9.198;2022-07-29T05:12:09;3.20;;;1.90;;
11113;SDS011;5610;52.154;9.198;2022-07-29T05:14:54;2.83;;;1.27;;
11113;SDS011;5610;52.154;9.198;2022-07-29T05:17:40;3.90;;;2.20;;
11113;SDS011;5610;52.154;9.198;2022-07-29T05:20:25;3.80;;;1.57;;
11113;SDS011;5610;52.154;9.198;2022-07-29T05:23:11;4.70;;;1.90;;
11113;SDS011;5610;52.154;9.198;2022-07-29T05:25:59;3.40;;;1.87;;
11113;SDS011;5610;52.154;9.198;2022-07-29T05:28:44;6.97;;;1.87;;
11113;SDS011;5610;52.154;9.198;2022-07-29T05:31:30;5.67;;;1.70;;
11113;SDS011;5610;52.154;9.198;2022-07-29T05:34:15;3.00;;;1.73;;
11113;SDS011;5610;52.154;9.198;2022-07-29T05:37:01;6.90;;;2.33;;
11113;SDS011;5610;52.154;9.198;2022-07-29T05:39:46;4.90;;;2.00;;
11113;SDS011;5610;52.154;9.198;2022-07-29T05:42:33;4.80;;;1.83;;
11113;SDS011;5610;52.154;9.198;2022-07-29T05:45:18;4.40;;;1.90;;
11113;SDS011;5610;52.154;9.198;2022-07-29T05:48:03;6.33;;;2.40;;
11113;SDS011;5610;52.154;9.198;2022-07-29T05:50:49;3.33;;;1.90;;
11113;SDS011;5610;52.154;9.198;2022-07-29T05:53:34;4.67;;;1.40;;
11113;SDS011;5610;52.154;9.198;2022-07-29T05:56:19;2.60;;;2.00;;
11113;SDS011;5610;52.154;9.198;2022-07-29T05:59:06;5.30;;;2.03;;
11113;SDS011;5610;52.154;9.198;2022-07-29T06:01:51;6.23;;;1.60;;
11113;SDS011;5610;52.154;9.198;2022-07-29T06:04:37;2.87;;;1.73;;
11113;SDS011;5610;52.154;9.198;2022-07-29T06:07:22;2.03;;;1.50;;
11113;SDS011;5610;52.154;9.198;2022-07-29T06:10:08;4.50;;;2.20;;
11113;SDS011;5610;52.154;9.198;2022-07-29T06:12:54;3.50;;;1.50;;
11113;SDS011;5610;52.154;9.198;2022-07-29T06:15:41;3.90;;;2.43;;
11113;SDS011;5610;52.154;9.198;2022-07-29T06:18:26;5.27;;;1.60;;
11113;SDS011;5610;52.154;9.198;2022-07-29T06:21:12;3.83;;;2.17;;
11113;SDS011;5610;52.154;9.198;2022-07-29T06:23:58;2.63;;;1.57;;
11113;SDS011;5610;52.154;9.198;2022-07-29T06:26:43;3.20;;;1.97;;
11113;SDS011;5610;52.154;9.198;2022-07-29T06:29:28;5.53;;;1.73;;
11113;SDS011;5610;52.154;9.198;2022-07-29T06:32:15;5.60;;;1.50;;
11113;SDS011;5610;52.154;9.198;2022-07-29T06:35:01;4.90;;;1.87;;
11113;SDS011;5610;52.154;9.198;2022-07-29T06:37:46;5.70;;;1.93;;
11113;SDS011;5610;52.154;9.198;2022-07-29T06:40:31;4.03;;;1.80;;
11113;SDS011;5610;52.154;9.198;2022-07-29T06:43:37;6.80;;;2.27;;
11113;SDS011;5610;52.154;9.198;2022-07-29T06:46:24;5.47;;;2.10;;
11113;SDS011;5610;52.154;9.198;2022-07-29T06:49:12;3.07;;;1.87;;
11113;SDS011;5610;52.154;9.198;2022-07-29T06:51:57;5.60;;;1.90;;
11113;SDS011;5610;52.154;9.198;2022-07-29T06:54:43;4.87;;;1.87;;
11113;SDS011;5610;52.154;9.198;2022-07-29T06:57:31;3.00;;;1.90;;
11113;SDS011;5610;52.154;9.198;2022-07-29T07:00:17;9.00;;;2.00;;
11113;SDS011;5610;52.154;9.198;2022-07-29T07:03:02;3.07;;;1.57;;
11113;SDS011;5610;52.154;9.198;2022-07-29T07:05:49;4.43;;;2.07;;
11113;SDS011;5610;52.154;9.198;2022-07-29T07:08:34;4.33;;;1.73;;
11113;SDS011;5610;52.154;9.198;2022-07-29T07:11:20;5.90;;;1.73;;
11113;SDS011;5610;52.154;9.198;2022-07-29T07:14:05;3.00;;;1.73;;
11113;SDS011;5610;52.154;9.198;2022-07-29T07:16:50;5.87;;;2.30;;
11113;SDS011;5610;52.154;9.198;2022-07-29T07:19:36;4.23;;;1.70;;
11113;SDS011;5610;52.154;9.198;2022-07-29T07:22:22;2.60;;;1.53;;
11113;SDS011;5610;52.154;9.198;2022-07-29T07:25:08;5.50;;;1.63;;
11113;SDS011;5610;52.154;9.198;2022-07-29T07:27:54;3.00;;;1.60;;
11113;SDS011;5610;52.154;9.198;2022-07-29T07:30:40;7.63;;;1.70;;
11113;SDS011;5610;52.154;9.198;2022-07-29T07:33:25;4.03;;;1.60;;
11113;SDS011;5610;52.154;9.198;2022-07-29T07:36:10;7.80;;;2.30;;
11113;SDS011;5610;52.154;9.198;2022-07-29T07:38:57;8.70;;;2.07;;
11113;SDS011;5610;52.154;9.198;2022-07-29T07:41:42;6.00;;;1.93;;
11113;SDS011;5610;52.154;9.198;2022-07-29T07:44:28;4.50;;;2.13;;
11113;SDS011;5610;52.154;9.198;2022-07-29T07:47:13;6.33;;;1.80;;
11113;SDS011;5610;52.154;9.198;2022-07-29T07:49:59;4.80;;;1.73;;
11113;SDS011;5610;52.154;9.198;2022-07-29T07:52:48;5.43;;;1.93;;
11113;SDS011;5610;52.154;9.198;2022-07-29T07:55:40;5.53;;;1.93;;
11113;SDS011;5610;52.154;9.198;2022-07-29T07:58:26;5.00;;;2.10;;
11113;SDS011;5610;52.154;9.198;2022-07-29T08:01:12;2.40;;;1.60;;
11113;SDS011;5610;52.154;9.198;2022-07-29T08:03:57;5.70;;;1.83;;
11113;SDS011;5610;52.154;9.198;2022-07-29T08:06:43;7.10;;;2.20;;
11113;SDS011;5610;52.154;9.198;2022-07-29T08:09:28;6.50;;;2.00;;
11113;SDS011;5610;52.154;9.198;2022-07-29T08:12:15;3.37;;;1.77;;
11113;SDS011;5610;52.154;9.198;2022-07-29T08:15:01;6.47;;;2.10;;
11113;SDS011;5610;52.154;9.198;2022-07-29T08:17:46;2.90;;;1.80;;
11113;SDS011;5610;52.154;9.198;2022-07-29T08:20:31;6.80;;;1.90;;
11113;SDS011;5610;52.154;9.198;2022-07-29T08:23:19;6.07;;;2.00;;
11113;SDS011;5610;52.154;9.198;2022-07-29T08:26:05;3.30;;;1.50;;
11113;SDS011;5610;52.154;9.198;2022-07-29T08:28:55;3.27;;;2.23;;
11113;SDS011;5610;52.154;9.198;2022-07-29T08:31:40;4.20;;;1.67;;
11113;SDS011;5610;52.154;9.198;2022-07-29T08:34:26;2.53;;;1.70;;
11113;SDS011;5610;52.154;9.198;2022-07-29T08:37:12;3.30;;;2.20;;
11113;SDS011;5610;52.154;9.198;2022-07-29T08:39:57;3.70;;;1.83;;
11113;SDS011;5610;52.154;9.198;2022-07-29T08:42:42;6.80;;;1.97;;
11113;SDS011;5610;52.154;9.198;2022-07-29T08:45:29;5.50;;;2.30;;
11113;SDS011;5610;52.154;9.198;2022-07-29T08:48:14;4.53;;;2.03;;
11113;SDS011;5610;52.154;9.198;2022-07-29T08:51:00;3.33;;;2.27;;
11113;SDS011;5610;52.154;9.198;2022-07-29T08:53:47;3.20;;;2.10;;
11113;SDS011;5610;52.154;9.198;2022-07-29T08:56:34;5.73;;;2.13;;
11113;SDS011;5610;52.154;9.198;2022-07-29T08:59:20;5.67;;;2.23;;
11113;SDS011;5610;52.154;9.198;2022-07-29T09:02:14;3.00;;;2.10;;
11113;SDS011;5610;52.154;9.198;2022-07-29T09:05:03;3.93;;;2.10;;
11113;SDS011;5610;52.154;9.198;2022-07-29T09:07:49;7.20;;;2.03;;
11113;SDS011;5610;52.154;9.198;2022-07-29T09:10:35;5.43;;;1.80;;
11113;SDS011;5610;52.154;9.198;2022-07-29T09:13:21;3.80;;;1.97;;
11113;SDS011;5610;52.154;9.198;2022-07-29T09:16:06;9.53;;;2.47;;
11113;SDS011;5610;52.154;9.198;2022-07-29T09:18:53;7.47;;;2.47;;
11113;SDS011;5610;52.154;9.198;2022-07-29T09:21:40;4.43;;;2.30;;
11113;SDS011;5610;52.154;9.198;2022-07-29T09:24:44;4.63;;;1.90;;
11113;SDS011;5610;52.154;9.198;2022-07-29T09:27:31;4.70;;;2.00;;
11113;SDS011;5610;52.154;9.198;2022-07-29T09:30:17;6.73;;;2.30;;
11113;SDS011;5610;52.154;9.198;2022-07-29T09:33:03;7.83;;;2.20;;
11113;SDS011;5610;52.154;9.198;2022-07-29T09:35:59;5.87;;;2.17;;
11113;SDS011;5610;52.154;9.198;2022-07-29T09:38:56;4.40;;;1.93;;
11113;SDS011;5610;52.154;9.198;2022-07-29T09:41:44;6.57;;;2.00;;
11113;SDS011;5610;52.154;9.198;2022-07-29T09:44:40;2.83;;;2.10;;
11113;SDS011;5610;52.154;9.198;2022-07-29T09:47:40;5.87;;;2.40;;
11113;SDS011;5610;52.154;9.198;2022-07-29T09:50:35;3.93;;;2.00;;
11113;SDS011;5610;52.154;9.198;2022-07-29T09:53:33;4.77;;;2.03;;
11113;SDS011;5610;52.154;9.198;2022-07-29T09:56:20;7.23;;;2.10;;
11113;SDS011;5610;52.154;9.198;2022-07-29T09:59:23;7.57;;;2.40;;
11113;SDS011;5610;52.154;9.198;2022-07-29T10:02:13;3.87;;;1.70;;
11113;SDS011;5610;52.154;9.198;2022-07-29T10:04:59;5.37;;;2.10;;
11113;SDS011;5610;52.154;9.198;2022-07-29T10:07:47;4.73;;;2.40;;
11113;SDS011;5610;52.154;9.198;2022-07-29T10:10:36;6.67;;;2.30;;
11113;SDS011;5610;52.154;9.198;2022-07-29T10:13:23;5.50;;;1.80;;
11113;SDS011;5610;52.154;9.198;2022-07-29T10:16:11;5.13;;;1.87;;
11113;SDS011;5610;52.154;9.198;2022-07-29T10:18:57;6.07;;;2.30;;
11113;SDS011;5610;52.154;9.198;2022-07-29T10:21:44;4.10;;;2.10;;
11113;SDS011;5610;52.154;9.198;2022-07-29T10:24:30;4.20;;;2.13;;
11113;SDS011;5610;52.154;9.198;2022-07-29T10:27:18;4.80;;;2.27;;
11113;SDS011;5610;52.154;9.198;2022-07-29T10:30:04;8.17;;;2.20;;
11113;SDS011;5610;52.154;9.198;2022-07-29T10:32:59;4.97;;;2.63;;
11113;SDS011;5610;52.154;9.198;2022-07-29T10:36:04;3.20;;;2.27;;
11113;SDS011;5610;52.154;9.198;2022-07-29T10:39:05;2.63;;;2.10;;
11113;SDS011;5610;52.154;9.198;2022-07-29T10:42:10;6.27;;;2.00;;
11113;SDS011;5610;52.154;9.198;2022-07-29T10:45:04;3.80;;;2.10;;
11113;SDS011;5610;52.154;9.198;2022-07-29T10:47:50;4.80;;;2.00;;
11113;SDS011;5610;52.154;9.198;2022-07-29T10:50:55;5.47;;;2.70;;
11113;SDS011;5610;52.154;9.198;2022-07-29T10:53:46;6.40;;;2.37;;
11113;SDS011;5610;52.154;9.198;2022-07-29T10:56:33;5.43;;;2.67;;
11113;SDS011;5610;52.154;9.198;2022-07-29T10:59:25;8.83;;;2.60;;
11113;SDS011;5610;52.154;9.198;2022-07-29T11:05:42;6.17;;;2.43;;
11113;SDS011;5610;52.154;9.198;2022-07-29T11:08:39;6.13;;;2.50;;
11113;SDS011;5610;52.154;9.198;2022-07-29T11:11:31;5.47;;;2.60;;
11113;SDS011;5610;52.154;9.198;2022-07-29T11:14:18;5.60;;;2.10;;
11113;SDS011;5610;52.154;9.198;2022-07-29T11:17:24;5.50;;;2.37;;
11113;SDS011;5610;52.154;9.198;2022-07-29T11:23:25;6.30;;;2.90;;
11113;SDS011;5610;52.154;9.198;2022-07-29T11:26:12;5.80;;;2.57;;
11113;SDS011;5610;52.154;9.198;2022-07-29T11:29:00;4.73;;;2.63;;
11113;SDS011;5610;52.154;9.198;2022-07-29T11:31:49;5.30;;;2.67;;
11113;SDS011;5610;52.154;9.198;2022-07-29T11:34:39;6.73;;;2.43;;
11113;SDS011;5610;52.154;9.198;2022-07-29T11:37:25;7.40;;;2.83;;
11113;SDS011;5610;52.154;9.198;2022-07-29T11:40:15;11.47;;;2.90;;
11113;SDS011;5610;52.154;9.198;2022-07-29T11:43:01;9.53;;;3.00;;
11113;SDS011;5610;52.154;9.198;2022-07-29T11:45:49;6.10;;;2.90;;
11113;SDS011;5610;52.154;9.198;2022-07-29T11:48:34;4.83;;;2.47;;
11113;SDS011;5610;52.154;9.198;2022-07-29T11:51:21;5.53;;;2.80;;
11113;SDS011;5610;52.154;9.198;2022-07-29T11:54:06;6.20;;;2.53;;
11113;SDS011;5610;52.154;9.198;2022-07-29T11:56:58;10.80;;;3.00;;
11113;SDS011;5610;52.154;9.198;2022-07-29T11:59:43;9.10;;;2.70;;
11113;SDS011;5610;52.154;9.198;2022-07-29T12:02:38;8.40;;;2.50;;
11113;SDS011;5610;52.154;9.198;2022-07-29T12:05:36;9.53;;;3.37;;
11113;SDS011;5610;52.154;9.198;2022-07-29T12:08:25;8.13;;;3.33;;
11113;SDS011;5610;52.154;9.198;2022-07-29T12:11:15;5.27;;;3.03;;
11113;SDS011;5610;52.154;9.198;2022-07-29T12:14:01;8.13;;;2.93;;
11113;SDS011;5610;52.154;9.198;2022-07-29T12:16:46;8.40;;;2.90;;
11113;SDS011;5610;52.154;9.198;2022-07-29T12:19:41;7.20;;;3.00;;
11113;SDS011;5610;52.154;9.198;2022-07-29T12:22:27;7.10;;;3.23;;
11113;SDS011;5610;52.154;9.198;2022-07-29T12:25:16;8.63;;;3.33;;
11113;SDS011;5610;52.154;9.198;2022-07-29T12:28:03;7.73;;;3.70;;
11113;SDS011;5610;52.154;9.198;2022-07-29T12:30:50;8.20;;;3.13;;
11113;SDS011;5610;52.154;9.198;2022-07-29T12:33:36;6.80;;;2.90;;
11113;SDS011;5610;52.154;9.198;2022-07-29T12:36:21;6.03;;;2.97;;
11113;SDS011;5610;52.154;9.198;2022-07-29T12:39:07;5.60;;;3.37;;
11113;SDS011;5610;52.154;9.198;2022-07-29T12:41:57;4.83;;;2.93;;
11113;SDS011;5610;52.154;9.198;2022-07-29T12:44:43;8.00;;;3.40;;
11113;SDS011;5610;52.154;9.198;2022-07-29T12:47:30;6.90;;;3.17;;
11113;SDS011;5610;52.154;9.198;2022-07-29T12:50:15;4.60;;;2.80;;
11113;SDS011;5610;52.154;9.198;2022-07-29T12:53:08;5.10;;;2.40;;
11113;SDS011;5610;52.154;9.198;2022-07-29T12:55:55;6.20;;;2.90;;
11113;SDS011;5610;52.154;9.198;2022-07-29T12:58:46;4.53;;;2.63;;
11113;SDS011;5610;52.154;9.198;2022-07-29T13:01:36;9.27;;;3.13;;
11113;SDS011;5610;52.154;9.198;2022-07-29T13:04:24;7.10;;;3.00;;
11113;SDS011;5610;52.154;9.198;2022-07-29T13:07:11;7.03;;;3.10;;
11113;SDS011;5610;52.154;9.198;2022-07-29T13:10:09;6.90;;;3.10;;
11113;SDS011;5610;52.154;9.198;2022-07-29T13:13:02;6.30;;;3.03;;
11113;SDS011;5610;52.154;9.198;2022-07-29T13:16:04;7.23;;;3.00;;
11113;SDS011;5610;52.154;9.198;2022-07-29T13:19:02;10.33;;;3.67;;
11113;SDS011;5610;52.154;9.198;2022-07-29T13:21:54;6.10;;;3.53;;
11113;SDS011;5610;52.154;9.198;2022-07-29T13:24:47;7.27;;;3.17;;
11113;SDS011;5610;52.154;9.198;2022-07-29T13:27:34;5.43;;;3.33;;
11113;SDS011;5610;52.154;9.198;2022-07-29T13:30:21;9.00;;;3.03;;
11113;SDS011;5610;52.154;9.198;2022-07-29T13:33:09;8.53;;;3.40;;
11113;SDS011;5610;52.154;9.198;2022-07-29T13:35:56;3.53;;;2.80;;
11113;SDS011;5610;52.154;9.198;2022-07-29T13:38:41;7.73;;;3.33;;
11113;SDS011;5610;52.154;9.198;2022-07-29T13:41:27;10.73;;;3.10;;
11113;SDS011;5610;52.154;9.198;2022-07-29T13:44:12;8.87;;;2.93;;
11113;SDS011;5610;52.154;9.198;2022-07-29T13:46:57;7.13;;;2.60;;
11113;SDS011;5610;52.154;9.198;2022-07-29T13:49:44;8.20;;;3.30;;
11113;SDS011;5610;52.154;9.198;2022-07-29T13:52:30;7.27;;;3.20;;
11113;SDS011;5610;52.154;9.198;2022-07-29T13:55:15;8.90;;;3.97;;
11113;SDS011;5610;52.154;9.198;2022-07-29T13:58:01;5.97;;;2.90;;
11113;SDS011;5610;52.154;9.198;2022-07-29T14:00:46;8.93;;;3.27;;
11113;SDS011;5610;52.154;9.198;2022-07-29T14:03:31;6.80;;;3.70;;
11113;SDS011;5610;52.154;9.198;2022-07-29T14:06:18;5.20;;;3.07;;
11113;SDS011;5610;52.154;9.198;2022-07-29T14:09:04;7.77;;;3.17;;
11113;SDS011;5610;52.154;9.198;2022-07-29T14:11:51;9.57;;;3.07;;
11113;SDS011;5610;52.154;9.198;2022-07-29T14:14:37;8.77;;;3.17;;
11113;SDS011;5610;52.154;9.198;2022-07-29T14:17:22;6.73;;;2.90;;
11113;SDS011;5610;52.154;9.198;2022-07-29T14:20:08;5.20;;;3.40;;
11113;SDS011;5610;52.154;9.198;2022-07-29T14:22:55;5.13;;;2.80;;
11113;SDS011;5610;52.154;9.198;2022-07-29T14:25:41;4.73;;;3.47;;
11113;SDS011;5610;52.154;9.198;2022-07-29T14:28:26;8.23;;;3.00;;
11113;SDS011;5610;52.154;9.198;2022-07-29T14:31:12;9.83;;;3.23;;
11113;SDS011;5610;52.154;9.198;2022-07-29T14:33:57;6.27;;;3.60;;
11113;SDS011;5610;52.154;9.198;2022-07-29T14:36:43;5.10;;;3.30;;
11113;SDS011;5610;52.154;9.198;2022-07-29T14:39:30;5.60;;;3.40;;
11113;SDS011;5610;52.154;9.198;2022-07-29T14:42:15;8.50;;;3.97;;
11113;SDS011;5610;52.154;9.198;2022-07-29T14:45:00;7.53;;;3.20;;
11113;SDS011;5610;52.154;9.198;2022-07-29T14:47:46;6.40;;;3.43;;
11113;SDS011;5610;52.154;9.198;2022-07-29T14:50:32;10.80;;;4.13;;
11113;SDS011;5610;52.154;9.198;2022-07-29T14:53:18;7.93;;;3.93;;
11113;SDS011;5610;52.154;9.198;2022-07-29T14:56:04;4.97;;;3.47;;
11113;SDS011;5610;52.154;9.198;2022-07-29T14:58:50;8.53;;;3.40;;
11113;SDS011;5610;52.154;9.198;2022-07-29T15:01:35;8.80;;;3.90;;
11113;SDS011;5610;52.154;9.198;2022-07-29T15:04:20;5.20;;;3.47;;
11113;SDS011;5610;52.154;9.198;2022-07-29T15:07:06;5.93;;;3.80;;
11113;SDS011;5610;52.154;9.198;2022-07-29T15:09:51;5.23;;;3.77;;
11113;SDS011;5610;52.154;9.198;2022-07-29T15:12:38;6.37;;;4.07;;
11113;SDS011;5610;52.154;9.198;2022-07-29T15:15:24;6.20;;;4.00;;
11113;SDS011;5610;52.154;9.198;2022-07-29T15:18:09;4.93;;;3.73;;
11113;SDS011;5610;52.154;9.198;2022-07-29T15:20:55;8.00;;;4.30;;
11113;SDS011;5610;52.154;9.198;2022-07-29T15:23:40;6.00;;;3.70;;
11113;SDS011;5610;52.154;9.198;2022-07-29T15:26:26;4.97;;;3.70;;
11113;SDS011;5610;52.154;9.198;2022-07-29T15:29:12;8.20;;;3.60;;
11113;SDS011;5610;52.154;9.198;2022-07-29T15:31:58;6.43;;;4.13;;
11113;SDS011;5610;52.154;9.198;2022-07-29T15:34:43;7.43;;;4.23;;
11113;SDS011;5610;52.154;9.198;2022-07-29T15:37:28;5.70;;;4.27;;
11113;SDS011;5610;52.154;9.198;2022-07-29T15:40:14;5.50;;;3.90;;
11113;SDS011;5610;52.154;9.198;2022-07-29T15:43:00;6.40;;;4.37;;
11113;SDS011;5610;52.154;9.198;2022-07-29T15:45:50;8.40;;;4.17;;
11113;SDS011;5610;52.154;9.198;2022-07-29T15:48:49;8.60;;;4.00;;
11113;SDS011;5610;52.154;9.198;2022-07-29T15:51:34;8.00;;;3.77;;
11113;SDS011;5610;52.154;9.198;2022-07-29T15:54:19;5.40;;;3.90;;
11113;SDS011;5610;52.154;9.198;2022-07-29T15:57:05;8.73;;;4.67;;
11113;SDS011;5610;52.154;9.198;2022-07-29T15:59:51;5.23;;;4.00;;
11113;SDS011;5610;52.154;9.198;2022-07-29T16:02:38;6.27;;;4.07;;
11113;SDS011;5610;52.154;9.198;2022-07-29T16:05:24;8.93;;;3.87;;
11113;SDS011;5610;52.154;9.198;2022-07-29T16:08:12;11.80;;;4.10;;
11113;SDS011;5610;52.154;9.198;2022-07-29T16:10:57;10.23;;;5.07;;
11113;SDS011;5610;52.154;9.198;2022-07-29T16:13:42;11.30;;;4.67;;
11113;SDS011;5610;52.154;9.198;2022-07-29T16:16:28;7.00;;;3.97;;
11113;SDS011;5610;52.154;9.198;2022-07-29T16:19:14;9.20;;;3.60;;
11113;SDS011;5610;52.154;9.198;2022-07-29T16:22:00;6.13;;;3.90;;
11113;SDS011;5610;52.154;9.198;2022-07-29T16:24:45;8.67;;;4.20;;
11113;SDS011;5610;52.154;9.198;2022-07-29T16:27:30;5.40;;;4.37;;
11113;SDS011;5610;52.154;9.198;2022-07-29T16:30:15;5.57;;;4.07;;
11113;SDS011;5610;52.154;9.198;2022-07-29T16:33:01;8.43;;;4.50;;
11113;SDS011;5610;52.154;9.198;2022-07-29T16:35:48;10.83;;;4.30;;
11113;SDS011;5610;52.154;9.198;2022-07-29T16:38:33;5.40;;;4.47;;
11113;SDS011;5610;52.154;9.198;2022-07-29T16:41:19;5.57;;;4.10;;
11113;SDS011;5610;52.154;9.198;2022-07-29T16:44:04;5.13;;;4.00;;
11113;SDS011;5610;52.154;9.198;2022-07-29T16:46:49;6.10;;;4.27;;
11113;SDS011;5610;52.154;9.198;2022-07-29T16:49:35;9.93;;;4.63;;
11113;SDS011;5610;52.154;9.198;2022-07-29T16:52:22;11.53;;;4.40;;
11113;SDS011;5610;52.154;9.198;2022-07-29T16:55:08;9.83;;;4.17;;
11113;SDS011;5610;52.154;9.198;2022-07-29T16:57:53;10.03;;;5.13;;
11113;SDS011;5610;52.154;9.198;2022-07-29T17:00:38;7.53;;;5.70;;
11113;SDS011;5610;52.154;9.198;2022-07-29T17:03:23;8.40;;;4.90;;
11113;SDS011;5610;52.154;9.198;2022-07-29T17:06:09;10.90;;;6.00;;
11113;SDS011;5610;52.154;9.198;2022-07-29T17:08:56;8.00;;;5.90;;
11113;SDS011;5610;52.154;9.198;2022-07-29T17:11:43;12.07;;;5.20;;